Lichtervelde, Belgium
Current Conditions -  °F | °C
As of 2:20 PM on Thursday 23 Oct 2014 (Local Time) from EBOS Reporting Station
Broken Clouds Broken Clouds  
Wind Chill: 57°   Ceiling: 4300
Heat Index: 57°   Visibility: 6mi
Dew Point: 50°   Wind: 12mph
Humidity: 77%   Direction: 190°S
Pressure: 30.18"   Gusts: NA
Location:  51.03°N, 3.15°E
Report Text: EBOS 231220Z 19010KT 9999 FEW020 BKN043 14/10 Q1022 NOSIG
Loading
Personal Weather Stations






























Interactive Weather Map
Tropical Storm Tracking
New forecast layout! Learn more

10-Day Weather Forecast

Advertisements
Track Severe Weather on mobile